Time;durP1;ratioP1;P1;durP2;ratioP2;P2;SDS_P1;SDS_P2;PMS_P1;PMS_P2;Temp;Humidity;BMP_temperature;BMP_pressure;BME280_temperature;BME280_humidity;BME280_pressure;Samples;Min_cycle;Max_cycle;Signal;HPM_P1;HPM_P2
2021/05/27 00:00:02;;;;;;;;;;;17.30;99.90;;;;;;5037555;28;19916;-72
2021/05/27 00:02:28;;;;;;;;;;;17.30;99.90;;;;;;5037786;28;19905;-78
2021/05/27 00:04:54;;;;;;;;;;;17.30;99.90;;;;;;5037926;28;20016;-72
2021/05/27 00:07:20;;;;;;;;;;;17.30;99.90;;;;;;5037245;28;19959;-78
2021/05/27 00:09:46;;;;;;;;;;;17.30;99.90;;;;;;5037374;28;19905;-72
2021/05/27 00:12:11;;;;;;;;;;;17.30;99.90;;;;;;5037529;28;19913;-72
2021/05/27 00:14:37;;;;;;;;;;;17.30;99.90;;;;;;5052679;28;19905;-71
2021/05/27 00:17:03;;;;;;;;;;;17.40;99.90;;;;;;5037052;28;19913;-75
2021/05/27 00:19:28;;;;;;;;;;;17.30;99.90;;;;;;5037298;28;19905;-75
2021/05/27 00:21:54;;;;;;;;;;;17.20;99.90;;;;;;5037055;28;19905;-79
2021/05/27 00:24:20;;;;;;;;;;;17.30;99.90;;;;;;5052667;28;20347;-79
2021/05/27 00:26:46;;;;;;;;;;;17.20;99.90;;;;;;5037043;28;19905;-79
2021/05/27 00:29:11;;;;;;;;;;;17.30;99.90;;;;;;5037172;28;19909;-72
2021/05/27 00:31:37;;;;;;;;;;;17.30;99.90;;;;;;5037193;28;19905;-78
2021/05/27 00:34:03;;;;;;;;;;;17.30;99.90;;;;;;5036897;28;19912;-76
2021/05/27 00:36:29;;;;;;;;;;;17.40;99.90;;;;;;5035485;28;19905;-72
2021/05/27 00:38:55;;;;;;;;;;;17.50;99.90;;;;;;5036814;28;19921;-76
2021/05/27 00:41:21;;;;;;;;;;;17.30;99.90;;;;;;5052487;28;19955;-77
2021/05/27 00:43:46;;;;;;;;;;;17.30;99.90;;;;;;5036682;28;20313;-78
2021/05/27 00:46:12;;;;;;;;;;;17.20;99.90;;;;;;5051436;28;19905;-79
2021/05/27 00:48:57;;;;;;;;;;;17.20;99.90;;;;;;5036752;28;20003;-75
2021/05/27 00:51:24;;;;;;;;;;;17.20;99.90;;;;;;5052989;28;20362;-72
2021/05/27 00:53:49;;;;;;;;;;;17.10;99.90;;;;;;5056518;28;19905;-76
2021/05/27 00:56:15;;;;;;;;;;;16.90;99.90;;;;;;5056631;28;19971;-71
2021/05/27 00:58:42;;;;;;;;;;;16.90;99.90;;;;;;5056332;28;20297;-79
2021/05/27 01:01:08;;;;;;;;;;;16.70;99.90;;;;;;5056380;28;19958;-72
2021/05/27 01:03:34;;;;;;;;;;;16.60;99.90;;;;;;5056404;28;19904;-79
2021/05/27 01:06:00;;;;;;;;;;;16.70;99.90;;;;;;5056253;28;19911;-77
2021/05/27 01:08:26;;;;;;;;;;;16.70;99.90;;;;;;5056441;28;20274;-76
2021/05/27 01:10:52;;;;;;;;;;;16.80;99.90;;;;;;5056101;28;19916;-71
2021/05/27 01:13:21;;;;;;;;;;;16.90;99.90;;;;;;5038253;28;19951;-78
2021/05/27 01:15:48;;;;;;;;;;;16.80;99.90;;;;;;5056148;28;19999;-78
2021/05/27 01:18:14;;;;;;;;;;;16.80;99.90;;;;;;5056291;28;19912;-73
2021/05/27 01:20:42;;;;;;;;;;;16.80;99.90;;;;;;5054640;28;19927;-78
2021/05/27 01:23:09;;;;;;;;;;;16.90;99.90;;;;;;5054566;28;19904;-72
2021/05/27 01:25:37;;;;;;;;;;;16.90;99.90;;;;;;5054666;28;19943;-78
2021/05/27 01:28:03;;;;;;;;;;;16.90;99.90;;;;;;5056032;28;19904;-72
2021/05/27 01:30:29;;;;;;;;;;;16.90;99.90;;;;;;5055767;28;20275;-79
2021/05/27 01:32:55;;;;;;;;;;;16.90;99.90;;;;;;5055763;28;20266;-72
2021/05/27 01:35:22;;;;;;;;;;;16.90;99.90;;;;;;5055582;28;19975;-79
2021/05/27 01:37:48;;;;;;;;;;;16.90;99.90;;;;;;5055448;28;20267;-72
2021/05/27 01:40:15;;;;;;;;;;;16.70;99.90;;;;;;5055458;28;19912;-72
2021/05/27 01:42:41;;;;;;;;;;;16.80;99.90;;;;;;5054399;28;20266;-72
2021/05/27 01:45:07;;;;;;;;;;;16.80;99.90;;;;;;5055682;28;20355;-72
2021/05/27 01:47:33;;;;;;;;;;;16.90;99.90;;;;;;5055574;28;19909;-72
2021/05/27 01:49:59;;;;;;;;;;;16.80;99.90;;;;;;5033978;28;19931;-73
2021/05/27 01:52:25;;;;;;;;;;;16.80;99.90;;;;;;5035573;28;19905;-77
2021/05/27 01:54:50;;;;;;;;;;;16.80;99.90;;;;;;5050531;28;20257;-79
2021/05/27 01:57:16;;;;;;;;;;;16.60;99.90;;;;;;5050687;28;20363;-72
2021/05/27 01:59:42;;;;;;;;;;;16.50;99.90;;;;;;5034933;28;19909;-73
2021/05/27 02:02:07;;;;;;;;;;;16.60;99.90;;;;;;5035192;28;20351;-73
2021/05/27 02:04:33;;;;;;;;;;;16.70;99.90;;;;;;5035731;28;19958;-72
2021/05/27 02:07:07;;;;;;;;;;;16.60;99.90;;;;;;5035036;28;19905;-74
2021/05/27 02:09:33;;;;;;;;;;;16.60;99.90;;;;;;5034203;28;20294;-71
2021/05/27 02:11:59;;;;;;;;;;;16.60;99.90;;;;;;5035200;28;20377;-77
2021/05/27 02:14:24;;;;;;;;;;;16.70;99.90;;;;;;5050488;28;20366;-76
2021/05/27 02:16:50;;;;;;;;;;;16.50;99.90;;;;;;5033429;28;19905;-72
2021/05/27 02:19:16;;;;;;;;;;;;;;;;;;5035140;28;19951;-80
2021/05/27 02:21:42;;;;;;;;;;;16.40;99.90;;;;;;5034842;28;19913;-73
2021/05/27 02:24:09;;;;;;;;;;;16.30;99.90;;;;;;5050237;28;19912;-77
2021/05/27 02:26:34;;;;;;;;;;;16.10;99.90;;;;;;5034839;28;19959;-73
2021/05/27 02:29:01;;;;;;;;;;;16.10;99.90;;;;;;5050147;28;20355;-78
2021/05/27 02:31:27;;;;;;;;;;;16.10;99.90;;;;;;5034876;28;20350;-78
2021/05/27 02:33:53;;;;;;;;;;;16.20;99.90;;;;;;5034636;28;19955;-72
2021/05/27 02:36:22;;;;;;;;;;;16.20;99.90;;;;;;5034883;28;19944;-72
2021/05/27 02:38:48;;;;;;;;;;;16.20;99.90;;;;;;5049901;28;19912;-76
2021/05/27 02:41:14;;;;;;;;;;;16.20;99.90;;;;;;5035059;28;19905;-74
2021/05/27 02:43:39;;;;;;;;;;;16.30;99.90;;;;;;5034805;28;19948;-80
2021/05/27 02:46:05;;;;;;;;;;;16.30;99.90;;;;;;5034328;28;19905;-72
2021/05/27 02:48:32;;;;;;;;;;;16.20;99.90;;;;;;5034342;28;20314;-80
2021/05/27 02:50:58;;;;;;;;;;;15.70;99.90;;;;;;5032916;28;20019;-78
2021/05/27 02:53:24;;;;;;;;;;;;;;;;;;5033466;28;19912;-73
2021/05/27 02:55:50;;;;;;;;;;;15.40;99.90;;;;;;5034345;28;19905;-72
2021/05/27 02:58:16;;;;;;;;;;;15.50;99.90;;;;;;5033068;28;19921;-78
2021/05/27 03:00:42;;;;;;;;;;;15.50;99.90;;;;;;5034372;28;19999;-76
2021/05/27 03:03:08;;;;;;;;;;;15.60;99.90;;;;;;5033018;28;19959;-77
2021/05/27 03:05:34;;;;;;;;;;;15.60;99.90;;;;;;5034440;28;20303;-75
2021/05/27 03:07:59;;;;;;;;;;;15.60;99.90;;;;;;5034297;28;19905;-75
2021/05/27 03:10:25;;;;;;;;;;;15.60;99.90;;;;;;5034029;28;20363;-78
2021/05/27 03:12:51;;;;;;;;;;;15.60;99.90;;;;;;5034151;28;19967;-73
2021/05/27 03:15:17;;;;;;;;;;;15.60;99.90;;;;;;5049484;28;19987;-71
2021/05/27 03:17:43;;;;;;;;;;;15.60;99.90;;;;;;5033834;28;19967;-72
2021/05/27 03:20:09;;;;;;;;;;;15.60;99.90;;;;;;5033946;28;19928;-78
2021/05/27 03:22:35;;;;;;;;;;;15.50;99.90;;;;;;5034097;28;19940;-74
2021/05/27 03:25:04;;;;;;;;;;;15.40;99.90;;;;;;5049492;28;19955;-73
2021/05/27 03:27:29;;;;;;;;;;;15.20;99.90;;;;;;5033833;28;19908;-78
2021/05/27 03:29:55;;;;;;;;;;;15.00;99.90;;;;;;5034130;28;19905;-78
2021/05/27 03:32:21;;;;;;;;;;;15.00;99.90;;;;;;5032735;28;19951;-71
2021/05/27 03:34:47;;;;;;;;;;;14.90;99.90;;;;;;5033865;28;20308;-72
2021/05/27 03:37:12;;;;;;;;;;;15.00;99.90;;;;;;5034032;28;20287;-73
2021/05/27 03:39:38;;;;;;;;;;;15.20;99.90;;;;;;5034111;28;20287;-79
2021/05/27 03:42:05;;;;;;;;;;;15.30;99.90;;;;;;5033919;28;19911;-76
2021/05/27 03:44:30;;;;;;;;;;;15.40;99.90;;;;;;5034035;28;19905;-79
2021/05/27 03:46:56;;;;;;;;;;;15.30;99.90;;;;;;5033633;28;19912;-72
2021/05/27 03:49:22;;;;;;;;;;;15.30;99.90;;;;;;5033815;28;20385;-72
2021/05/27 03:51:48;;;;;;;;;;;15.30;99.90;;;;;;5053173;28;20015;-76
2021/05/27 03:54:15;;;;;;;;;;;15.50;99.90;;;;;;5053658;28;19911;-72
2021/05/27 03:56:41;;;;;;;;;;;15.60;99.90;;;;;;5052350;28;19905;-71
2021/05/27 04:01:52;;;;;;;;;;;15.40;99.90;;;;;;5053574;28;19958;-79
2021/05/27 04:07:11;;;;;;;;;;;15.60;99.90;;;;;;5053755;28;19962;-72
2021/05/27 04:09:38;;;;;;;;;;;15.70;99.90;;;;;;5052280;28;19927;-72
2021/05/27 04:17:33;;;;;;;;;;;16.00;99.90;;;;;;5053663;28;19958;-76
2021/05/27 04:20:00;;;;;;;;;;;16.00;99.90;;;;;;5053513;28;19904;-78
2021/05/27 04:22:26;;;;;;;;;;;16.10;99.90;;;;;;5056121;28;19911;-78
2021/05/27 04:24:52;;;;;;;;;;;16.00;99.90;;;;;;5055657;28;20347;-76
2021/05/27 04:27:18;;;;;;;;;;;15.90;99.90;;;;;;5057021;28;20351;-76
2021/05/27 04:29:43;;;;;;;;;;;16.00;99.90;;;;;;5056998;28;19905;-79
2021/05/27 04:32:52;;;;;;;;;;;16.00;99.90;;;;;;5056967;28;19904;-72
2021/05/27 04:34:58;;;;;;;;;;;16.10;99.90;;;;;;5056631;28;19954;-72
2021/05/27 04:37:23;;;;;;;;;;;16.30;99.90;;;;;;5056940;28;19913;-79
2021/05/27 04:39:49;;;;;;;;;;;16.40;99.90;;;;;;5056724;28;20270;-77
2021/05/27 04:42:15;;;;;;;;;;;16.60;99.90;;;;;;5055629;28;20362;-72
2021/05/27 04:44:41;;;;;;;;;;;16.70;99.90;;;;;;5056946;28;19962;-76
2021/05/27 04:47:07;;;;;;;;;;;16.70;99.90;;;;;;5056685;28;19911;-79
2021/05/27 04:49:32;;;;;;;;;;;16.70;99.90;;;;;;5056371;28;19913;-72
2021/05/27 04:51:58;;;;;;;;;;;16.80;99.90;;;;;;5056838;28;19912;-73
2021/05/27 04:54:24;;;;;;;;;;;17.00;99.90;;;;;;5056491;28;19911;-72
2021/05/27 04:56:50;;;;;;;;;;;17.10;99.90;;;;;;5056665;28;19911;-79
2021/05/27 04:59:15;;;;;;;;;;;17.30;99.90;;;;;;5054968;28;19905;-72
2021/05/27 05:01:41;;;;;;;;;;;17.50;99.90;;;;;;5056547;28;20430;-79
2021/05/27 05:04:07;;;;;;;;;;;17.60;99.90;;;;;;5056916;28;20299;-73
2021/05/27 05:06:33;;;;;;;;;;;17.70;99.90;;;;;;5056195;28;19912;-76
2021/05/27 05:08:59;;;;;;;;;;;17.80;99.90;;;;;;5038269;28;19905;-73
2021/05/27 05:11:24;;;;;;;;;;;17.70;99.90;;;;;;5056576;28;19911;-71
2021/05/27 05:13:50;;;;;;;;;;;17.60;99.90;;;;;;5056372;28;19991;-74
2021/05/27 05:16:16;;;;;;;;;;;17.70;99.90;;;;;;5056153;28;19904;-78
2021/05/27 05:18:42;;;;;;;;;;;17.70;99.90;;;;;;5055895;28;19923;-78
2021/05/27 05:21:07;;;;;;;;;;;17.70;99.90;;;;;;5038095;28;19905;-72
2021/05/27 05:23:33;;;;;;;;;;;17.80;99.90;;;;;;5054513;28;19905;-72
2021/05/27 05:25:58;;;;;;;;;;;17.80;99.90;;;;;;5055629;28;19904;-75
2021/05/27 05:28:24;;;;;;;;;;;17.80;99.90;;;;;;5055968;28;19936;-71
2021/05/27 05:30:50;;;;;;;;;;;18.00;99.90;;;;;;5055719;28;19970;-77
2021/05/27 05:33:16;;;;;;;;;;;18.00;99.90;;;;;;5054676;28;19905;-78
2021/05/27 05:35:41;;;;;;;;;;;18.10;99.90;;;;;;5055967;28;20007;-78
2021/05/27 05:38:07;;;;;;;;;;;18.30;99.90;;;;;;5054207;28;19913;-72
2021/05/27 05:40:33;;;;;;;;;;;18.60;99.40;;;;;;5055749;28;19904;-80
2021/05/27 05:42:59;;;;;;;;;;;18.70;99.60;;;;;;5055563;28;19904;-78
2021/05/27 05:45:26;;;;;;;;;;;18.60;99.30;;;;;;5055456;28;20000;-77
2021/05/27 05:47:52;;;;;;;;;;;18.60;98.80;;;;;;5055611;28;20215;-73
2021/05/27 05:53:04;;;;;;;;;;;18.80;98.50;;;;;;5055786;28;19922;-72
2021/05/27 05:55:29;;;;;;;;;;;19.10;97.50;;;;;;5055473;28;19908;-80
2021/05/27 05:57:55;;;;;;;;;;;19.20;97.50;;;;;;5055378;28;19913;-78
2021/05/27 06:00:21;;;;;;;;;;;19.30;97.30;;;;;;5055172;28;19905;-79
2021/05/27 06:02:47;;;;;;;;;;;19.20;96.90;;;;;;5055407;28;20271;-77
2021/05/27 06:05:13;;;;;;;;;;;19.20;96.50;;;;;;5055344;28;19919;-72
2021/05/27 06:07:38;;;;;;;;;;;19.10;96.50;;;;;;5054801;28;19978;-78
2021/05/27 06:10:04;;;;;;;;;;;19.30;96.40;;;;;;5055639;28;19905;-73
2021/05/27 06:12:30;;;;;;;;;;;19.30;94.90;;;;;;5054409;28;19912;-77
2021/05/27 06:14:56;;;;;;;;;;;19.40;94.50;;;;;;5053508;28;19913;-77
2021/05/27 06:17:22;;;;;;;;;;;19.60;94.80;;;;;;5054811;28;19924;-72
2021/05/27 06:19:47;;;;;;;;;;;19.70;94.30;;;;;;5054747;28;19905;-71
2021/05/27 06:22:13;;;;;;;;;;;20.00;93.50;;;;;;5054777;28;19951;-75
2021/05/27 06:24:38;;;;;;;;;;;20.20;93.60;;;;;;5036800;28;19923;-71
2021/05/27 06:27:04;;;;;;;;;;;20.70;92.40;;;;;;5054895;28;19926;-76
2021/05/27 06:29:30;;;;;;;;;;;20.70;91.00;;;;;;5054718;28;19919;-72
2021/05/27 06:31:56;;;;;;;;;;;20.70;90.70;;;;;;5054368;28;19928;-71
2021/05/27 06:34:21;;;;;;;;;;;20.70;90.00;;;;;;5036546;28;19911;-74
2021/05/27 06:36:47;;;;;;;;;;;20.60;82.90;;;;;;5054718;28;19904;-74
2021/05/27 06:39:13;;;;;;;;;;;20.70;79.00;;;;;;5054658;28;19912;-79
2021/05/27 06:41:39;;;;;;;;;;;20.80;78.00;;;;;;5054335;28;19912;-73
2021/05/27 06:44:04;;;;;;;;;;;21.00;82.60;;;;;;5053809;28;19904;-72
2021/05/27 06:46:30;;;;;;;;;;;21.10;79.80;;;;;;5054048;28;20340;-72
2021/05/27 06:48:57;;;;;;;;;;;20.80;79.20;;;;;;5054721;28;19905;-72
2021/05/27 06:51:22;;;;;;;;;;;20.70;79.10;;;;;;5036169;28;19973;-73
2021/05/27 06:53:50;;;;;;;;;;;20.70;78.70;;;;;;5054456;28;20391;-78
2021/05/27 06:56:16;;;;;;;;;;;20.80;82.90;;;;;;5054353;28;19911;-77
2021/05/27 06:58:42;;;;;;;;;;;20.80;82.60;;;;;;5053928;28;19916;-77
2021/05/27 07:01:08;;;;;;;;;;;20.80;80.50;;;;;;5054100;28;20003;-71
2021/05/27 07:03:33;;;;;;;;;;;20.80;82.00;;;;;;5054076;28;19963;-72
2021/05/27 07:06:02;;;;;;;;;;;20.90;82.30;;;;;;5054121;28;19905;-76
2021/05/27 07:08:28;;;;;;;;;;;20.90;83.10;;;;;;5053832;28;19905;-72
2021/05/27 07:10:53;;;;;;;;;;;20.90;83.60;;;;;;5052594;28;20360;-73
2021/05/27 07:13:19;;;;;;;;;;;20.80;83.70;;;;;;5054535;28;20266;-80
2021/05/27 07:15:45;;;;;;;;;;;20.90;84.60;;;;;;5053836;28;20271;-70
2021/05/27 07:18:11;;;;;;;;;;;21.20;88.10;;;;;;5053881;28;20007;-79
2021/05/27 07:20:39;;;;;;;;;;;21.30;83.60;;;;;;5052618;28;19905;-76
2021/05/27 07:23:05;;;;;;;;;;;21.70;81.60;;;;;;5054206;28;19905;-79
2021/05/27 07:25:31;;;;;;;;;;;21.80;79.50;;;;;;5054132;28;19958;-71
2021/05/27 07:27:57;;;;;;;;;;;22.20;80.40;;;;;;5054076;28;20404;-76
2021/05/27 07:30:26;;;;;;;;;;;22.60;82.00;;;;;;5054120;28;19912;-74
2021/05/27 07:32:52;;;;;;;;;;;22.70;79.60;;;;;;5053678;28;19950;-79
2021/05/27 07:35:18;;;;;;;;;;;22.60;76.10;;;;;;5053595;28;20019;-79
2021/05/27 07:37:45;;;;;;;;;;;22.10;77.50;;;;;;5053940;28;19913;-71
2021/05/27 07:40:12;;;;;;;;;;;22.60;78.30;;;;;;5053899;28;20247;-77
2021/05/27 07:42:38;;;;;;;;;;;22.70;77.40;;;;;;5053933;28;19908;-77
2021/05/27 07:45:04;;;;;;;;;;;22.60;77.90;;;;;;5052259;28;20316;-71
2021/05/27 07:47:32;;;;;;;;;;;22.80;78.70;;;;;;5053599;28;19904;-79
2021/05/27 07:50:00;;;;;;;;;;;22.80;75.30;;;;;;5048795;28;19917;-78
2021/05/27 07:52:26;;;;;;;;;;;23.00;79.30;;;;;;5033520;28;19951;-72
2021/05/27 07:54:53;;;;;;;;;;;23.20;76.60;;;;;;5033668;28;19913;-78
2021/05/27 07:57:19;;;;;;;;;;;22.90;75.00;;;;;;5036551;28;19913;-72
2021/05/27 07:59:45;;;;;;;;;;;22.90;75.20;;;;;;5037431;28;19905;-76
2021/05/27 08:02:11;;;;;;;;;;;23.00;79.00;;;;;;5037734;28;20351;-73
2021/05/27 08:04:37;;;;;;;;;;;23.20;77.50;;;;;;5037795;28;19905;-70
2021/05/27 08:07:03;;;;;;;;;;;23.30;71.10;;;;;;5037487;28;19905;-72
2021/05/27 08:09:28;;;;;;;;;;;23.40;71.20;;;;;;5035940;28;19959;-76
2021/05/27 08:11:54;;;;;;;;;;;23.40;75.00;;;;;;5037470;28;19912;-75
2021/05/27 08:14:20;;;;;;;;;;;23.20;72.40;;;;;;5037282;28;20240;-74
2021/05/27 08:16:47;;;;;;;;;;;23.10;72.60;;;;;;5037624;28;19905;-74
2021/05/27 08:19:12;;;;;;;;;;;23.10;72.00;;;;;;5037304;28;19924;-73
2021/05/27 08:21:38;;;;;;;;;;;23.20;75.10;;;;;;5037507;28;20000;-75
2021/05/27 08:24:04;;;;;;;;;;;23.30;76.20;;;;;;5037187;28;19905;-73
2021/05/27 08:26:30;;;;;;;;;;;23.50;75.30;;;;;;5037314;28;20262;-71
2021/05/27 08:28:56;;;;;;;;;;;23.50;69.40;;;;;;5036856;28;20327;-71
2021/05/27 08:31:22;;;;;;;;;;;23.60;76.20;;;;;;5052155;28;20355;-75
2021/05/27 08:33:51;;;;;;;;;;;23.50;72.70;;;;;;5036865;28;19912;-72
2021/05/27 08:36:17;;;;;;;;;;;23.10;71.50;;;;;;5052534;28;19956;-73
2021/05/27 08:38:43;;;;;;;;;;;23.00;69.20;;;;;;5035805;28;19921;-71
2021/05/27 08:41:09;;;;;;;;;;;22.90;74.50;;;;;;5036718;28;20003;-73
2021/05/27 08:43:35;;;;;;;;;;;23.00;71.90;;;;;;5036537;28;20328;-71
2021/05/27 08:46:01;;;;;;;;;;;23.10;70.00;;;;;;5036691;28;19908;-71
2021/05/27 08:48:27;;;;;;;;;;;23.00;71.90;;;;;;5035254;28;19951;-71
2021/05/27 08:50:53;;;;;;;;;;;23.20;71.00;;;;;;5048435;28;20014;-72
2021/05/27 08:53:19;;;;;;;;;;;23.60;73.40;;;;;;5056525;28;19943;-73
2021/05/27 08:55:46;;;;;;;;;;;23.70;69.00;;;;;;5056567;28;19911;-72
2021/05/27 08:58:12;;;;;;;;;;;24.20;71.60;;;;;;5056211;28;20011;-71
2021/05/27 09:00:38;;;;;;;;;;;24.40;66.80;;;;;;5056245;28;20383;-71
2021/05/27 09:03:06;;;;;;;;;;;24.10;67.60;;;;;;5056501;28;20007;-71
2021/05/27 09:05:34;;;;;;;;;;;23.90;70.80;;;;;;5056282;28;19975;-72
2021/05/27 09:08:00;;;;;;;;;;;23.80;72.40;;;;;;5056217;28;19905;-74
2021/05/27 09:10:42;;;;;;;;;;;23.80;71.40;;;;;;5056303;28;19927;-74
2021/05/27 09:13:28;;;;;;;;;;;23.90;71.80;;;;;;5056258;28;19904;-74
2021/05/27 09:16:04;;;;;;;;;;;24.20;68.60;;;;;;5055001;28;20305;-70
2021/05/27 09:18:32;;;;;;;;;;;24.70;67.20;;;;;;5056044;28;19920;-70
2021/05/27 09:20:58;;;;;;;;;;;24.70;65.50;;;;;;5056160;28;19904;-73
2021/05/27 09:23:25;;;;;;;;;;;24.80;64.20;;;;;;5056347;28;19948;-74
2021/05/27 09:25:52;;;;;;;;;;;24.70;67.30;;;;;;5055863;28;19905;-73
2021/05/27 09:28:23;;;;;;;;;;;24.50;65.40;;;;;;5056040;28;19904;-71
2021/05/27 09:30:52;;;;;;;;;;;24.80;66.90;;;;;;5054497;28;19955;-72
2021/05/27 09:33:18;;;;;;;;;;;24.50;65.30;;;;;;5056196;28;20337;-71
2021/05/27 09:35:43;;;;;;;;;;;24.60;65.10;;;;;;5055878;28;19966;-71
2021/05/27 09:38:11;;;;;;;;;;;24.80;68.30;;;;;;5054371;28;19913;-72
2021/05/27 09:40:39;;;;;;;;;;;25.10;65.40;;;;;;5055764;28;19904;-73
2021/05/27 09:43:05;;;;;;;;;;;25.20;64.00;;;;;;5055722;28;20420;-73
2021/05/27 09:45:34;;;;;;;;;;;25.20;62.20;;;;;;5055724;28;19955;-74
2021/05/27 09:48:16;;;;;;;;;;;24.90;63.30;;;;;;5054092;28;19905;-73
2021/05/27 09:50:42;;;;;;;;;;;24.40;62.30;;;;;;5054730;28;19920;-72
2021/05/27 09:53:18;;;;;;;;;;;24.70;62.90;;;;;;5053999;28;19905;-73
2021/05/27 09:55:45;;;;;;;;;;;25.10;62.60;;;;;;5055334;28;19904;-71
2021/05/27 09:58:12;;;;;;;;;;;25.30;61.50;;;;;;5055195;28;20282;-74
2021/05/27 10:00:38;;;;;;;;;;;25.70;66.60;;;;;;5053909;28;19905;-71
2021/05/27 10:03:22;;;;;;;;;;;25.60;65.70;;;;;;5055401;28;19912;-73
2021/05/27 10:05:49;;;;;;;;;;;25.70;66.90;;;;;;5054977;28;20282;-74
2021/05/27 10:08:15;;;;;;;;;;;25.70;65.60;;;;;;5053762;28;20434;-74
2021/05/27 10:10:42;;;;;;;;;;;25.90;65.00;;;;;;5054925;28;19952;-71
2021/05/27 10:13:09;;;;;;;;;;;25.80;60.60;;;;;;5054985;28;20342;-71
2021/05/27 10:15:35;;;;;;;;;;;25.40;60.30;;;;;;5054747;28;19959;-72
2021/05/27 10:18:04;;;;;;;;;;;25.30;59.50;;;;;;5054733;28;19916;-71
2021/05/27 10:20:30;;;;;;;;;;;25.30;61.30;;;;;;5053982;28;20448;-71
2021/05/27 10:22:58;;;;;;;;;;;25.60;64.40;;;;;;5054716;28;20343;-71
2021/05/27 10:25:25;;;;;;;;;;;25.20;58.60;;;;;;5036704;28;19951;-71
2021/05/27 10:27:51;;;;;;;;;;;25.50;61.60;;;;;;5054598;28;20062;-76
2021/05/27 10:30:22;;;;;;;;;;;25.80;63.50;;;;;;5054185;28;19905;-71
2021/05/27 10:32:50;;;;;;;;;;;25.80;64.00;;;;;;5052764;28;19909;-71
2021/05/27 10:35:17;;;;;;;;;;;26.10;61.90;;;;;;5064644;28;20369;-71
2021/05/27 10:37:43;;;;;;;;;;;26.70;63.20;;;;;;5060484;28;19928;-71
2021/05/27 10:40:09;;;;;;;;;;;27.10;60.00;;;;;;5054402;28;19943;-71
2021/05/27 10:42:53;;;;;;;;;;;27.10;58.70;;;;;;5054225;28;19986;-71
2021/05/27 10:45:19;;;;;;;;;;;27.10;63.30;;;;;;5054273;28;19954;-71
2021/05/27 10:48:03;;;;;;;;;;;27.40;61.90;;;;;;5053003;28;19955;-71
2021/05/27 10:50:47;;;;;;;;;;;27.70;64.00;;;;;;5054034;28;20354;-78
2021/05/27 10:53:31;;;;;;;;;;;27.30;61.60;;;;;;5054224;28;19999;-77
2021/05/27 10:55:57;;;;;;;;;;;26.90;60.70;;;;;;5054093;28;19955;-73
2021/05/27 10:58:43;;;;;;;;;;;27.10;57.50;;;;;;5054210;28;19960;-74
2021/05/27 11:01:09;;;;;;;;;;;27.00;54.10;;;;;;5052676;28;19954;-78
2021/05/27 11:03:44;;;;;;;;;;;27.00;54.80;;;;;;5054105;28;19905;-77
2021/05/27 11:06:16;;;;;;;;;;;26.90;57.40;;;;;;5036284;28;19912;-74
2021/05/27 11:08:42;;;;;;;;;;;27.00;53.10;;;;;;5053959;28;19915;-78
2021/05/27 11:11:26;;;;;;;;;;;26.80;56.20;;;;;;5036106;28;19905;-78
2021/05/27 11:14:11;;;;;;;;;;;27.20;58.20;;;;;;5054622;28;19915;-76
2021/05/27 11:16:56;;;;;;;;;;;27.40;55.20;;;;;;5053857;28;19904;-72
2021/05/27 11:19:48;;;;;;;;;;;27.20;54.60;;;;;;5052381;28;19938;-76
2021/05/27 11:22:34;;;;;;;;;;;27.00;54.90;;;;;;5054233;28;20341;-72
2021/05/27 11:27:55;;;;;;;;;;;27.60;58.00;;;;;;5054241;28;19928;-77
2021/05/27 11:30:28;;;;;;;;;;;28.00;58.10;;;;;;5037153;28;20353;-72
2021/05/27 11:32:55;;;;;;;;;;;28.30;58.50;;;;;;5057836;28;20278;-72
2021/05/27 11:35:22;;;;;;;;;;;27.90;54.10;;;;;;5058252;28;19905;-78
2021/05/27 11:37:50;;;;;;;;;;;27.90;59.50;;;;;;5058000;28;19919;-78
2021/05/27 11:40:17;;;;;;;;;;;27.90;57.10;;;;;;5058229;28;19905;-78
2021/05/27 11:42:49;;;;;;;;;;;27.60;52.50;;;;;;5057939;28;20436;-72
2021/05/27 11:45:16;;;;;;;;;;;27.90;53.50;;;;;;5058160;28;20367;-79
2021/05/27 11:47:42;;;;;;;;;;;28.00;56.60;;;;;;5056573;28;19936;-78
2021/05/27 11:50:10;;;;;;;;;;;28.70;58.30;;;;;;5052742;28;20012;-78
2021/05/27 11:52:36;;;;;;;;;;;28.80;55.80;;;;;;5037725;28;19905;-73
2021/05/27 11:55:02;;;;;;;;;;;29.00;57.40;;;;;;5038000;28;19909;-78
2021/05/27 11:57:42;;;;;;;;;;;28.80;56.50;;;;;;5037785;28;19919;-77
2021/05/27 12:00:09;;;;;;;;;;;29.20;57.50;;;;;;5036495;28;19928;-79
2021/05/27 12:02:44;;;;;;;;;;;28.60;53.60;;;;;;5037737;28;19905;-77
2021/05/27 12:05:20;;;;;;;;;;;29.10;55.30;;;;;;5037706;28;19905;-78
2021/05/27 12:08:02;;;;;;;;;;;29.20;56.30;;;;;;5037247;28;19905;-78
2021/05/27 12:10:35;;;;;;;;;;;29.50;55.90;;;;;;5037560;28;20313;-78
2021/05/27 12:13:02;;;;;;;;;;;29.70;55.00;;;;;;5036191;28;20317;-72
2021/05/27 12:15:28;;;;;;;;;;;29.50;54.10;;;;;;5036152;28;20000;-77
2021/05/27 12:17:57;;;;;;;;;;;29.10;55.30;;;;;;5037261;28;20349;-72
2021/05/27 12:20:34;;;;;;;;;;;29.20;54.10;;;;;;5037677;28;20276;-79
2021/05/27 12:23:07;;;;;;;;;;;29.10;54.50;;;;;;5037037;28;19916;-74
2021/05/27 12:25:40;;;;;;;;;;;29.20;54.90;;;;;;5035913;28;20313;-73
2021/05/27 12:28:17;;;;;;;;;;;29.20;55.30;;;;;;5036777;28;20252;-76
2021/05/27 12:30:47;;;;;;;;;;;29.20;54.50;;;;;;5037292;28;19913;-72
2021/05/27 12:33:17;;;;;;;;;;;29.40;54.50;;;;;;5037123;28;20341;-77
2021/05/27 12:35:43;;;;;;;;;;;29.10;50.80;;;;;;5036783;28;20306;-72
2021/05/27 12:38:19;;;;;;;;;;;28.90;54.20;;;;;;5052018;28;19916;-71
2021/05/27 12:40:47;;;;;;;;;;;28.80;53.20;;;;;;5035683;28;20274;-76
2021/05/27 12:43:23;;;;;;;;;;;28.60;52.90;;;;;;5036251;28;19909;-75
2021/05/27 12:45:50;;;;;;;;;;;28.30;55.70;;;;;;5036829;28;20274;-76
2021/05/27 12:48:17;;;;;;;;;;;28.20;55.30;;;;;;5037106;28;19905;-77
2021/05/27 12:50:44;;;;;;;;;;;28.10;53.70;;;;;;5046799;28;19960;-73
2021/05/27 12:53:23;;;;;;;;;;;28.10;56.60;;;;;;5056847;28;19912;-74
2021/05/27 12:55:50;;;;;;;;;;;28.00;57.30;;;;;;5056653;28;20361;-76
2021/05/27 12:58:30;;;;;;;;;;;28.10;53.40;;;;;;5056386;28;19919;-76
2021/05/27 13:00:56;;;;;;;;;;;27.90;56.50;;;;;;5056802;28;19905;-78
2021/05/27 13:03:22;;;;;;;;;;;27.90;54.60;;;;;;5056309;28;20100;-77
2021/05/27 13:06:08;;;;;;;;;;;28.20;55.80;;;;;;5056404;28;19911;-77
2021/05/27 13:08:34;;;;;;;;;;;28.70;55.90;;;;;;5056470;28;20311;-73
2021/05/27 13:11:00;;;;;;;;;;;29.10;55.00;;;;;;5054832;28;19919;-76
2021/05/27 13:13:35;;;;;;;;;;;29.30;54.40;;;;;;5038427;28;19905;-72
2021/05/27 13:16:01;;;;;;;;;;;29.40;54.70;;;;;;5056458;28;19908;-78
2021/05/27 13:18:27;;;;;;;;;;;29.50;56.40;;;;;;5056221;28;19919;-76
2021/05/27 13:20:54;;;;;;;;;;;29.10;51.60;;;;;;5054987;28;19923;-72
2021/05/27 13:23:26;;;;;;;;;;;28.90;53.40;;;;;;5054666;28;19931;-75
2021/05/27 13:25:52;;;;;;;;;;;29.10;54.10;;;;;;5054720;28;19952;-71
2021/05/27 13:28:27;;;;;;;;;;;29.20;55.20;;;;;;5055762;28;19970;-75
2021/05/27 13:30:55;;;;;;;;;;;29.20;54.60;;;;;;5054634;28;20003;-72
2021/05/27 13:33:21;;;;;;;;;;;29.40;55.60;;;;;;5055981;28;19905;-77
2021/05/27 13:35:54;;;;;;;;;;;29.20;52.80;;;;;;5055851;28;19912;-79
2021/05/27 13:38:21;;;;;;;;;;;29.20;55.80;;;;;;5055755;28;19919;-72
2021/05/27 13:40:47;;;;;;;;;;;29.40;53.00;;;;;;5055554;28;19904;-78
2021/05/27 13:43:13;;;;;;;;;;;29.50;52.80;;;;;;5055653;28;20313;-74
2021/05/27 13:45:39;;;;;;;;;;;29.30;52.10;;;;;;5054437;28;19935;-76
2021/05/27 13:48:05;;;;;;;;;;;28.80;50.30;;;;;;5054127;28;19904;-72
2021/05/27 13:50:32;;;;;;;;;;;28.60;52.60;;;;;;5050628;28;20374;-75
2021/05/27 13:53:02;;;;;;;;;;;28.80;54.50;;;;;;5035467;28;19912;-74
2021/05/27 13:55:28;;;;;;;;;;;29.00;53.90;;;;;;5050325;28;19909;-72
2021/05/27 13:57:55;;;;;;;;;;;28.90;53.80;;;;;;5035582;28;20278;-71
2021/05/27 14:00:21;;;;;;;;;;;28.80;51.80;;;;;;5035304;28;19905;-77
2021/05/27 14:02:49;;;;;;;;;;;28.80;54.50;;;;;;5035490;28;20244;-71
2021/05/27 14:05:18;;;;;;;;;;;28.50;51.70;;;;;;5035161;28;19909;-72
2021/05/27 14:07:43;;;;;;;;;;;28.40;53.10;;;;;;5050310;28;19905;-72
2021/05/27 14:10:09;;;;;;;;;;;28.00;54.20;;;;;;5034827;28;20266;-73
2021/05/27 14:12:35;;;;;;;;;;;28.00;53.50;;;;;;5035054;28;19943;-73
2021/05/27 14:15:02;;;;;;;;;;;28.10;54.90;;;;;;5035247;28;19916;-77
2021/05/27 14:17:27;;;;;;;;;;;28.10;52.50;;;;;;5035347;28;19904;-78
2021/05/27 14:19:53;;;;;;;;;;;28.10;51.70;;;;;;5035061;28;20252;-72
2021/05/27 14:22:19;;;;;;;;;;;28.00;50.70;;;;;;5035056;28;19912;-72
2021/05/27 14:24:45;;;;;;;;;;;28.00;53.50;;;;;;5035155;28;19905;-76
2021/05/27 14:27:11;;;;;;;;;;;27.90;52.60;;;;;;5035167;28;19905;-74
2021/05/27 14:29:40;;;;;;;;;;;27.70;54.00;;;;;;5034339;28;19909;-75
2021/05/27 14:32:06;;;;;;;;;;;27.70;54.60;;;;;;5033601;28;19912;-75
2021/05/27 14:34:32;;;;;;;;;;;;;;;;;;5034470;28;20367;-72
2021/05/27 14:36:58;;;;;;;;;;;27.30;51.70;;;;;;5035310;28;20272;-73